sensor_id;sensor_type;location;lat;lon;timestamp;pressure;altitude;pressure_sealevel;temperature;humidity
7586;BME280;12459;42.646;23.292;2023-03-04T00:04:36;93615.78;;;5.63;100.00
7586;BME280;12459;42.646;23.292;2023-03-04T00:19:37;93761.94;;;6.59;100.00
7586;BME280;12459;42.646;23.292;2023-03-04T00:34:39;93565.72;;;5.69;100.00
7586;BME280;12459;42.646;23.292;2023-03-04T00:49:41;93613.38;;;4.96;100.00
7586;BME280;12459;42.646;23.292;2023-03-04T01:04:43;93396.63;;;4.67;100.00
7586;BME280;12459;42.646;23.292;2023-03-04T01:19:44;93474.94;;;4.98;100.00
7586;BME280;12459;42.646;23.292;2023-03-04T01:34:46;93682.13;;;6.73;100.00
7586;BME280;12459;42.646;23.292;2023-03-04T01:49:53;93322.91;;;4.35;100.00
7586;BME280;12459;42.646;23.292;2023-03-04T02:04:55;93431.78;;;5.15;100.00
7586;BME280;12459;42.646;23.292;2023-03-04T02:20:02;93668.44;;;6.78;100.00
7586;BME280;12459;42.646;23.292;2023-03-04T02:35:07;93664.97;;;6.60;100.00
7586;BME280;12459;42.646;23.292;2023-03-04T02:50:14;93290.72;;;3.41;100.00
7586;BME280;12459;42.646;23.292;2023-03-04T03:05:16;93449.50;;;4.42;100.00
7586;BME280;12459;42.646;23.292;2023-03-04T03:20:19;93659.56;;;6.38;100.00
7586;BME280;12459;42.646;23.292;2023-03-04T03:35:21;93348.31;;;3.92;100.00
7586;BME280;12459;42.646;23.292;2023-03-04T03:50:22;93615.78;;;6.25;100.00
7586;BME280;12459;42.646;23.292;2023-03-04T04:05:25;93556.56;;;5.63;100.00
7586;BME280;12459;42.646;23.292;2023-03-04T04:20:26;93372.19;;;3.55;100.00
7586;BME280;12459;42.646;23.292;2023-03-04T04:35:28;93560.56;;;4.88;100.00
7586;BME280;12459;42.646;23.292;2023-03-04T04:50:30;93607.59;;;5.28;100.00
7586;BME280;12459;42.646;23.292;2023-03-04T05:05:33;93336.50;;;3.42;100.00
7586;BME280;12459;42.646;23.292;2023-03-04T05:20:35;93506.88;;;4.16;100.00
7586;BME280;12459;42.646;23.292;2023-03-04T05:35:38;93516.47;;;4.72;100.00
7586;BME280;12459;42.646;23.292;2023-03-04T05:50:41;93395.31;;;3.99;100.00
7586;BME280;12459;42.646;23.292;2023-03-04T06:05:43;93612.00;;;5.64;100.00
7586;BME280;12459;42.646;23.292;2023-03-04T06:20:45;93664.06;;;6.27;100.00
7586;BME280;12459;42.646;23.292;2023-03-04T06:35:47;93595.84;;;5.32;100.00
7586;BME280;12459;42.646;23.292;2023-03-04T06:50:49;93464.22;;;4.32;100.00
7586;BME280;12459;42.646;23.292;2023-03-04T07:05:51;93453.38;;;4.11;100.00
7586;BME280;12459;42.646;23.292;2023-03-04T07:20:52;93442.84;;;4.62;100.00
7586;BME280;12459;42.646;23.292;2023-03-04T07:35:58;93662.56;;;6.26;100.00
7586;BME280;12459;42.646;23.292;2023-03-04T07:51:11;93708.44;;;6.92;100.00
7586;BME280;12459;42.646;23.292;2023-03-04T08:06:15;93438.31;;;5.25;100.00
7586;BME280;12459;42.646;23.292;2023-03-04T08:21:18;93340.41;;;4.47;100.00
7586;BME280;12459;42.646;23.292;2023-03-04T08:36:20;93666.56;;;6.82;100.00
7586;BME280;12459;42.646;23.292;2023-03-04T08:51:22;93552.81;;;6.76;100.00
7586;BME280;12459;42.646;23.292;2023-03-04T09:06:24;93649.88;;;7.92;100.00
7586;BME280;12459;42.646;23.292;2023-03-04T09:21:25;93587.47;;;7.54;100.00
7586;BME280;12459;42.646;23.292;2023-03-04T09:36:27;93167.34;;;5.00;100.00
7586;BME280;12459;42.646;23.292;2023-03-04T10:06:37;93630.34;;;8.48;100.00
7586;BME280;12459;42.646;23.292;2023-03-04T10:21:48;93532.59;;;7.63;100.00
7586;BME280;12459;42.646;23.292;2023-03-04T11:07:25;93234.56;;;6.35;100.00
7586;BME280;12459;42.646;23.292;2023-03-04T11:22:28;93322.56;;;7.09;100.00
7586;BME280;12459;42.646;23.292;2023-03-04T11:37:56;93498.38;;;8.31;100.00
7586;BME280;12459;42.646;23.292;2023-03-04T11:53:08;93504.44;;;8.50;100.00
7586;BME280;12459;42.646;23.292;2023-03-04T12:08:23;93368.75;;;7.72;100.00
7586;BME280;12459;42.646;23.292;2023-03-04T12:39:17;93453.75;;;8.94;100.00
7586;BME280;12459;42.646;23.292;2023-03-04T12:54:39;93448.44;;;8.87;100.00
7586;BME280;12459;42.646;23.292;2023-03-04T13:24:56;93348.69;;;8.63;100.00
7586;BME280;12459;42.646;23.292;2023-03-04T13:40:36;93370.44;;;8.62;100.00
7586;BME280;12459;42.646;23.292;2023-03-04T13:55:40;93382.50;;;8.77;100.00
7586;BME280;12459;42.646;23.292;2023-03-04T14:10:43;93272.81;;;8.13;100.00
7586;BME280;12459;42.646;23.292;2023-03-04T14:25:45;93278.97;;;8.51;100.00
7586;BME280;12459;42.646;23.292;2023-03-04T14:40:59;93191.56;;;8.17;100.00
7586;BME280;12459;42.646;23.292;2023-03-04T15:11:07;93327.91;;;9.16;100.00
7586;BME280;12459;42.646;23.292;2023-03-04T15:26:09;93324.38;;;8.88;100.00
7586;BME280;12459;42.646;23.292;2023-03-04T15:41:15;93310.19;;;8.95;100.00
7586;BME280;12459;42.646;23.292;2023-03-04T15:56:24;93216.78;;;8.09;100.00
7586;BME280;12459;42.646;23.292;2023-03-04T16:11:27;93283.56;;;8.50;100.00
7586;BME280;12459;42.646;23.292;2023-03-04T16:26:31;93142.56;;;7.59;100.00
7586;BME280;12459;42.646;23.292;2023-03-04T16:41:33;93192.50;;;7.52;100.00
7586;BME280;12459;42.646;23.292;2023-03-04T16:56:37;93167.13;;;7.33;100.00
7586;BME280;12459;42.646;23.292;2023-03-04T17:11:39;93290.81;;;8.01;100.00
7586;BME280;12459;42.646;23.292;2023-03-04T17:26:41;93178.75;;;7.01;100.00
7586;BME280;12459;42.646;23.292;2023-03-04T17:41:43;93314.66;;;7.67;100.00
7586;BME280;12459;42.646;23.292;2023-03-04T17:56:44;93266.00;;;7.53;100.00
7586;BME280;12459;42.646;23.292;2023-03-04T18:11:47;93250.91;;;7.25;100.00
7586;BME280;12459;42.646;23.292;2023-03-04T18:26:49;93333.72;;;7.69;100.00
7586;BME280;12459;42.646;23.292;2023-03-04T18:41:51;93217.47;;;7.17;100.00
7586;BME280;12459;42.646;23.292;2023-03-04T18:56:55;93269.09;;;7.48;100.00
7586;BME280;12459;42.646;23.292;2023-03-04T19:11:57;93341.56;;;7.91;100.00
7586;BME280;12459;42.646;23.292;2023-03-04T19:26:59;93363.13;;;7.55;100.00
7586;BME280;12459;42.646;23.292;2023-03-04T19:42:01;92838.72;;;4.13;100.00
7586;BME280;12459;42.646;23.292;2023-03-04T19:57:03;93088.75;;;5.84;100.00
7586;BME280;12459;42.646;23.292;2023-03-04T20:12:05;93063.41;;;5.37;100.00
7586;BME280;12459;42.646;23.292;2023-03-04T20:27:07;93055.34;;;5.72;100.00
7586;BME280;12459;42.646;23.292;2023-03-04T20:42:09;93317.09;;;7.44;100.00
7586;BME280;12459;42.646;23.292;2023-03-04T20:57:11;93151.34;;;6.24;100.00
7586;BME280;12459;42.646;23.292;2023-03-04T21:12:13;92966.63;;;5.41;100.00
7586;BME280;12459;42.646;23.292;2023-03-04T21:27:14;93239.97;;;7.09;100.00
7586;BME280;12459;42.646;23.292;2023-03-04T21:42:17;93086.84;;;5.92;100.00
7586;BME280;12459;42.646;23.292;2023-03-04T21:57:19;93049.22;;;5.86;100.00
7586;BME280;12459;42.646;23.292;2023-03-04T22:12:21;93146.53;;;6.78;100.00
7586;BME280;12459;42.646;23.292;2023-03-04T22:27:23;92968.53;;;5.41;100.00
7586;BME280;12459;42.646;23.292;2023-03-04T22:42:24;93114.47;;;6.19;100.00
7586;BME280;12459;42.646;23.292;2023-03-04T22:57:26;93184.41;;;7.11;100.00
7586;BME280;12459;42.646;23.292;2023-03-04T23:12:28;93226.66;;;7.09;100.00
7586;BME280;12459;42.646;23.292;2023-03-04T23:27:30;93141.72;;;6.55;100.00
7586;BME280;12459;42.646;23.292;2023-03-04T23:42:31;93075.81;;;5.93;100.00
7586;BME280;12459;42.646;23.292;2023-03-04T23:57:33;93294.25;;;7.43;100.00
